createdAt,value
2022-11-15T00:04:27.232Z,4.93
2022-11-15T00:09:53.211Z,4.47
2022-11-15T00:15:18.813Z,5.13
2022-11-15T00:20:45.797Z,5.00
2022-11-15T00:26:12.879Z,5.07
2022-11-15T00:31:36.445Z,5.15
2022-11-15T00:37:10.202Z,4.90
2022-11-15T00:42:34.625Z,5.15
2022-11-15T00:47:58.603Z,5.40
2022-11-15T00:53:25.270Z,5.70
2022-11-15T00:58:49.065Z,5.90
2022-11-15T01:04:12.973Z,5.67
2022-11-15T01:09:39.749Z,5.15
2022-11-15T01:15:04.148Z,5.50
2022-11-15T01:20:28.319Z,5.63
2022-11-15T01:25:55.074Z,4.78
2022-11-15T01:31:20.970Z,5.40
2022-11-15T01:36:45.047Z,4.95
2022-11-15T01:42:15.965Z,4.72
2022-11-15T01:47:43.590Z,5.10
2022-11-15T01:53:07.708Z,4.72
2022-11-15T01:58:35.264Z,5.10
2022-11-15T02:04:02.732Z,5.20
2022-11-15T02:09:26.924Z,4.80
2022-11-15T02:14:57.451Z,5.27
2022-11-15T02:20:51.733Z,5.20
2022-11-15T02:26:41.510Z,5.40
2022-11-15T02:32:14.726Z,5.20
2022-11-15T02:37:44.889Z,6.03
2022-11-15T02:43:25.815Z,5.50
2022-11-15T02:48:53.098Z,5.55
2022-11-15T02:54:19.761Z,5.73
2022-11-15T03:00:11.864Z,4.88
2022-11-15T03:05:41.700Z,5.15
2022-11-15T03:11:12.261Z,4.80
2022-11-15T03:16:40.802Z,5.70
2022-11-15T03:22:12.102Z,5.20
2022-11-15T03:27:41.531Z,5.23
2022-11-15T03:33:08.144Z,5.30
2022-11-15T03:38:36.225Z,5.60
2022-11-15T03:44:08.419Z,5.10
2022-11-15T03:49:35.671Z,5.82
2022-11-15T03:55:05.413Z,4.90
2022-11-15T04:00:29.717Z,4.97
2022-11-15T04:05:53.445Z,4.43
2022-11-15T04:11:20.063Z,4.45
2022-11-15T04:16:44.193Z,4.55
2022-11-15T04:22:20.638Z,4.50
2022-11-15T04:27:47.404Z,4.45
2022-11-15T04:33:11.157Z,5.10
2022-11-15T04:38:35.344Z,4.40
2022-11-15T04:44:02.026Z,3.95
2022-11-15T04:49:25.781Z,4.60
2022-11-15T04:54:50.119Z,4.53
2022-11-15T05:00:21.387Z,4.07
2022-11-15T05:05:45.858Z,4.57
2022-11-15T05:11:10.192Z,4.30
2022-11-15T05:16:37.218Z,4.50
2022-11-15T05:22:00.744Z,4.18
2022-11-15T05:27:24.694Z,4.10
2022-11-15T05:32:51.565Z,4.35
2022-11-15T05:38:15.464Z,4.43
2022-11-15T05:43:42.138Z,4.80
2022-11-15T05:49:11.253Z,5.28
2022-11-15T05:54:36.562Z,5.23
2022-11-15T06:00:00.546Z,4.87
2022-11-15T06:05:27.438Z,4.85
2022-11-15T06:10:51.163Z,4.23
2022-11-15T06:16:15.180Z,4.50
2022-11-15T06:21:41.761Z,4.50
2022-11-15T06:27:05.502Z,4.00
2022-11-15T06:32:32.246Z,3.25
2022-11-15T06:37:59.181Z,3.77
2022-11-15T06:43:23.265Z,4.00
2022-11-15T06:48:46.910Z,3.65
2022-11-15T06:54:13.982Z,3.60
2022-11-15T06:59:40.682Z,3.90
2022-11-15T07:05:04.994Z,4.05
2022-11-15T07:10:32.560Z,3.50
2022-11-15T07:15:56.523Z,3.10
2022-11-15T07:21:24.864Z,2.80
2022-11-15T07:26:53.867Z,2.70
2022-11-15T07:32:18.054Z,2.70
2022-11-15T07:37:41.911Z,2.40
2022-11-15T07:43:09.867Z,2.30
2022-11-15T07:48:43.550Z,2.28
2022-11-15T07:54:08.176Z,2.40
2022-11-15T07:59:35.817Z,1.95
2022-11-15T08:05:00.191Z,2.42
2022-11-15T08:10:24.467Z,2.30
2022-11-15T08:15:57.411Z,2.55
2022-11-15T08:21:24.480Z,2.23
2022-11-15T08:26:48.376Z,2.17
2022-11-15T08:32:15.422Z,2.10
2022-11-15T08:37:39.231Z,2.57
2022-11-15T08:43:03.722Z,2.30
2022-11-15T08:48:31.094Z,2.10
2022-11-15T08:53:55.165Z,2.20
2022-11-15T08:59:20.702Z,2.00
2022-11-15T09:04:48.036Z,2.10
2022-11-15T09:10:12.723Z,1.67
2022-11-15T09:15:36.851Z,1.75
2022-11-15T09:21:07.764Z,1.48
2022-11-15T09:26:32.264Z,1.50
2022-11-15T09:31:56.643Z,1.50
2022-11-15T09:37:23.621Z,1.73
2022-11-15T09:42:59.973Z,1.67
2022-11-15T09:48:43.017Z,1.38
2022-11-15T09:54:51.789Z,1.00
2022-11-15T10:00:30.972Z,0.77
2022-11-15T10:05:30.679Z,0.90
2022-11-15T10:10:42.061Z,1.00
2022-11-15T10:15:49.490Z,1.05
2022-11-15T10:21:05.850Z,0.93
2022-11-15T10:26:18.720Z,1.33
2022-11-15T10:31:28.985Z,1.25
2022-11-15T10:36:34.420Z,0.90
2022-11-15T10:41:45.363Z,0.68
2022-11-15T10:46:52.330Z,0.70
2022-11-15T10:52:00.507Z,0.80
2022-11-15T10:57:16.026Z,0.80
2022-11-15T11:02:36.989Z,0.73
2022-11-15T11:07:42.386Z,0.80
2022-11-15T11:12:50.408Z,0.68
2022-11-15T11:18:06.741Z,0.60
2022-11-15T11:23:47.207Z,0.68
2022-11-15T11:29:04.992Z,0.53
2022-11-15T11:34:20.115Z,0.80
2022-11-15T11:39:35.752Z,0.68
2022-11-15T11:45:01.790Z,0.60
2022-11-15T11:50:17.900Z,0.70
2022-11-15T11:55:28.665Z,0.50
2022-11-15T12:06:25.597Z,0.50
2022-11-15T12:11:36.739Z,0.47
2022-11-15T12:16:44.735Z,0.50
2022-11-15T12:21:59.086Z,0.80
2022-11-15T12:27:11.371Z,0.65
2022-11-15T12:32:29.860Z,0.70
2022-11-15T12:37:52.183Z,0.70
2022-11-15T12:43:04.508Z,0.93
2022-11-15T12:48:42.559Z,0.50
2022-11-15T12:53:51.502Z,0.65
2022-11-15T12:58:59.620Z,1.20
2022-11-15T13:04:27.994Z,0.80
2022-11-15T13:09:58.300Z,0.70
2022-11-15T13:15:04.008Z,0.70
2022-11-15T13:20:29.252Z,0.53
2022-11-15T13:26:12.875Z,0.73
2022-11-15T13:31:27.696Z,0.70
2022-11-15T13:36:36.941Z,0.90
2022-11-15T13:41:51.963Z,0.70
2022-11-15T13:47:17.290Z,0.70
2022-11-15T13:52:35.053Z,0.70
2022-11-15T13:57:47.862Z,0.80
2022-11-15T14:02:53.596Z,0.60
2022-11-15T14:08:01.629Z,0.60
2022-11-15T14:13:30.249Z,0.77
2022-11-15T14:18:48.873Z,0.60
2022-11-15T14:23:54.520Z,0.70
2022-11-15T14:29:25.643Z,1.02
2022-11-15T14:34:31.622Z,1.10
2022-11-15T14:39:37.008Z,1.20
2022-11-15T14:44:46.299Z,1.60
2022-11-15T14:49:51.863Z,1.60
2022-11-15T14:54:57.389Z,1.70
2022-11-15T15:00:06.692Z,1.60
2022-11-15T15:05:20.121Z,1.57
2022-11-15T15:10:40.029Z,1.60
2022-11-15T15:15:49.408Z,1.30
2022-11-15T15:21:01.078Z,1.50
2022-11-15T15:26:06.838Z,2.05
2022-11-15T15:31:14.934Z,1.80
2022-11-15T15:36:22.507Z,1.77
2022-11-15T15:41:27.929Z,1.40
2022-11-15T15:46:38.008Z,1.47
2022-11-15T15:51:43.347Z,1.40
2022-11-15T15:56:53.485Z,1.50
2022-11-15T16:02:04.727Z,1.80
2022-11-15T16:07:17.409Z,1.80
2022-11-15T16:12:22.787Z,1.30
2022-11-15T16:17:35.905Z,1.70
2022-11-15T16:22:41.279Z,2.33
2022-11-15T16:27:47.741Z,1.38
2022-11-15T16:32:56.461Z,1.17
2022-11-15T16:38:01.825Z,1.38
2022-11-15T16:43:07.220Z,1.50
2022-11-15T16:48:25.660Z,1.27
2022-11-15T16:53:31.298Z,1.30
2022-11-15T16:58:36.592Z,1.43
2022-11-15T17:03:44.519Z,1.47
2022-11-15T17:08:50.392Z,1.40
2022-11-15T17:14:00.868Z,1.83
2022-11-15T17:19:09.364Z,1.60
2022-11-15T17:24:15.128Z,1.70
2022-11-15T17:29:20.487Z,1.77
2022-11-15T17:34:28.535Z,1.93
2022-11-15T17:39:33.921Z,1.58
2022-11-15T17:44:39.371Z,2.40
2022-11-15T17:49:47.356Z,1.90
2022-11-15T17:54:52.767Z,1.58
2022-11-15T17:59:58.153Z,1.73
2022-11-15T18:05:06.657Z,2.00
2022-11-15T18:10:12.439Z,2.00
2022-11-15T18:15:19.171Z,1.70
2022-11-15T18:20:29.089Z,1.77
2022-11-15T18:25:34.705Z,1.90
2022-11-15T18:30:41.687Z,1.63
2022-11-15T18:35:49.731Z,1.77
2022-11-15T18:40:55.164Z,2.20
2022-11-15T18:46:05.097Z,2.10
2022-11-15T18:51:14.842Z,2.90
2022-11-15T18:56:22.020Z,3.27
2022-11-15T19:01:29.449Z,2.58
2022-11-15T19:06:40.767Z,2.72
2022-11-15T19:11:48.174Z,2.80
2022-11-15T19:16:54.743Z,3.35
2022-11-15T19:22:03.842Z,4.40
2022-11-15T19:27:09.447Z,3.00
2022-11-15T19:32:14.774Z,3.47
2022-11-15T19:37:23.249Z,5.17
2022-11-15T19:42:28.596Z,6.35
2022-11-15T19:47:34.022Z,3.28
2022-11-15T19:52:42.025Z,3.37
2022-11-15T19:57:47.358Z,3.88
2022-11-15T20:02:52.788Z,4.00
2022-11-15T20:08:00.831Z,4.38
2022-11-15T20:13:06.189Z,3.97
2022-11-15T20:18:11.582Z,4.27
2022-11-15T20:23:19.739Z,3.22
2022-11-15T20:28:27.976Z,3.90
2022-11-15T20:33:33.319Z,4.00
2022-11-15T20:38:41.758Z,4.88
2022-11-15T20:43:48.867Z,4.77
2022-11-15T20:48:54.289Z,4.72
2022-11-15T20:54:02.230Z,4.20
2022-11-15T20:59:07.656Z,4.27
2022-11-15T21:04:13.113Z,3.92
2022-11-15T21:09:45.469Z,4.07
2022-11-15T21:14:52.581Z,3.80
2022-11-15T21:19:58.036Z,3.92
2022-11-15T21:25:06.463Z,4.10
2022-11-15T21:30:13.626Z,4.20
2022-11-15T21:35:19.015Z,3.80
2022-11-15T21:40:27.326Z,3.73
2022-11-15T21:45:32.691Z,3.83
2022-11-15T21:50:38.031Z,3.73
2022-11-15T21:55:46.300Z,4.15
2022-11-15T22:01:04.568Z,4.03
2022-11-15T22:06:15.998Z,4.13
2022-11-15T22:11:25.500Z,3.72
2022-11-15T22:16:30.929Z,4.00
2022-11-15T22:21:38.105Z,4.38
2022-11-15T22:26:46.249Z,4.28
2022-11-15T22:31:51.728Z,3.67
2022-11-15T22:42:25.398Z,3.73
2022-11-15T22:47:30.968Z,3.67
2022-11-15T22:52:36.879Z,3.28
2022-11-15T22:57:45.021Z,3.20
2022-11-15T23:02:53.335Z,3.25
2022-11-15T23:07:59.936Z,3.07
2022-11-15T23:13:19.370Z,3.10
2022-11-15T23:18:25.436Z,3.53
2022-11-15T23:23:30.921Z,3.17
2022-11-15T23:28:39.148Z,3.15
2022-11-15T23:33:57.009Z,3.10
2022-11-15T23:39:03.234Z,2.85
2022-11-15T23:44:11.577Z,3.00
2022-11-15T23:49:17.137Z,3.30
2022-11-15T23:54:22.597Z,2.90
2022-11-15T23:59:30.696Z,3.20
